createdAt,value
2024-03-25T00:00:31.816Z,5.80
2024-03-25T00:02:35.334Z,5.80
2024-03-25T00:04:37.882Z,5.80
2024-03-25T00:06:40.547Z,5.80
2024-03-25T00:08:53.895Z,5.70
2024-03-25T00:11:03.817Z,5.70
2024-03-25T00:13:08.470Z,5.70
2024-03-25T00:15:11.101Z,5.70
2024-03-25T00:19:43.294Z,5.60
2024-03-25T00:21:47.466Z,5.60
2024-03-25T00:23:50.589Z,5.60
2024-03-25T00:25:53.488Z,5.60
2024-03-25T00:27:56.071Z,5.60
2024-03-25T00:29:58.751Z,5.50
2024-03-25T00:32:01.292Z,5.60
2024-03-25T00:34:04.111Z,5.50
2024-03-25T00:36:07.258Z,5.50
2024-03-25T00:38:42.113Z,5.50
2024-03-25T00:41:02.936Z,5.50
2024-03-25T00:43:07.202Z,5.50
2024-03-25T00:45:10.286Z,5.60
2024-03-25T00:47:13.128Z,5.50
2024-03-25T00:49:15.683Z,5.50
2024-03-25T00:51:18.187Z,5.50
2024-03-25T00:53:20.737Z,5.50
2024-03-25T00:55:23.444Z,5.50
2024-03-25T00:57:25.999Z,5.50
2024-03-25T00:59:28.549Z,5.50
2024-03-25T01:01:32.148Z,5.50
2024-03-25T01:03:35.012Z,5.50
2024-03-25T01:05:37.517Z,5.50
2024-03-25T01:07:40.050Z,5.50
2024-03-25T01:09:59.238Z,5.50
2024-03-25T01:12:24.502Z,5.40
2024-03-25T01:14:28.697Z,5.40
2024-03-25T01:16:31.246Z,5.40
2024-03-25T01:18:33.948Z,5.40
2024-03-25T01:20:36.532Z,5.50
2024-03-25T01:22:39.291Z,5.40
2024-03-25T01:24:41.795Z,5.40
2024-03-25T01:26:44.512Z,5.40
2024-03-25T01:28:47.014Z,5.40
2024-03-25T01:30:49.529Z,5.40
2024-03-25T01:32:52.060Z,5.40
2024-03-25T01:34:54.584Z,5.30
2024-03-25T01:36:57.100Z,5.40
2024-03-25T01:39:19.660Z,5.40
2024-03-25T01:41:43.084Z,5.30
2024-03-25T01:43:47.118Z,5.30
2024-03-25T01:45:49.932Z,5.30
2024-03-25T01:47:52.680Z,5.30
2024-03-25T01:49:56.949Z,5.30
2024-03-25T01:51:59.539Z,5.30
2024-03-25T01:54:02.486Z,5.30
2024-03-25T01:56:06.082Z,5.20
2024-03-25T01:58:08.876Z,5.20
2024-03-25T02:00:12.212Z,5.20
2024-03-25T02:02:16.654Z,5.20
2024-03-25T02:04:19.159Z,5.20
2024-03-25T02:06:22.288Z,5.20
2024-03-25T02:08:46.916Z,5.20
2024-03-25T02:11:12.649Z,5.20
2024-03-25T02:13:33.425Z,5.20
2024-03-25T02:15:37.795Z,5.20
2024-03-25T02:17:40.532Z,5.20
2024-03-25T02:19:43.091Z,5.20
2024-03-25T02:21:45.597Z,5.20
2024-03-25T02:23:50.516Z,5.20
2024-03-25T02:25:53.166Z,5.10
2024-03-25T02:27:55.669Z,5.10
2024-03-25T02:30:03.094Z,5.10
2024-03-25T02:32:06.854Z,5.20
2024-03-25T02:34:09.646Z,5.20
2024-03-25T02:36:12.441Z,5.10
2024-03-25T02:38:17.269Z,5.10
2024-03-25T02:40:20.739Z,5.10
2024-03-25T02:42:23.812Z,5.10
2024-03-25T02:44:26.822Z,5.10
2024-03-25T02:46:29.400Z,5.10
2024-03-25T02:48:31.940Z,5.00
2024-03-25T02:50:34.470Z,5.00
2024-03-25T02:52:37.135Z,5.00
2024-03-25T02:54:39.654Z,5.00
2024-03-25T02:56:42.145Z,5.00
2024-03-25T02:58:44.702Z,5.00
2024-03-25T03:00:47.629Z,5.00
2024-03-25T03:02:50.150Z,5.00
2024-03-25T03:04:52.700Z,5.00
2024-03-25T03:06:55.271Z,5.00
2024-03-25T03:08:57.889Z,5.00
2024-03-25T03:11:00.493Z,5.00
2024-03-25T03:13:03.108Z,5.00
2024-03-25T03:15:06.891Z,5.00
2024-03-25T03:17:09.733Z,5.00
2024-03-25T03:19:12.274Z,5.00
2024-03-25T03:21:14.851Z,5.00
2024-03-25T03:23:17.882Z,5.10
2024-03-25T03:25:20.462Z,5.00
2024-03-25T03:27:24.118Z,5.00
2024-03-25T03:29:26.797Z,5.00
2024-03-25T03:31:29.767Z,5.10
2024-03-25T03:33:32.328Z,5.00
2024-03-25T03:35:34.879Z,5.00
2024-03-25T03:37:37.384Z,5.00
2024-03-25T03:39:39.933Z,5.00
2024-03-25T03:41:42.456Z,5.10
2024-03-25T03:43:44.970Z,5.00
2024-03-25T03:45:47.527Z,5.00
2024-03-25T03:47:50.154Z,5.00
2024-03-25T03:49:52.716Z,5.00
2024-03-25T03:51:55.233Z,5.10
2024-03-25T03:53:57.817Z,5.10
2024-03-25T03:56:02.204Z,5.10
2024-03-25T03:58:05.037Z,5.10
2024-03-25T04:00:08.990Z,5.10
2024-03-25T04:02:13.781Z,5.20
2024-03-25T04:04:16.393Z,5.20
2024-03-25T04:06:18.943Z,5.20
2024-03-25T04:08:21.494Z,5.10
2024-03-25T04:10:24.083Z,5.10
2024-03-25T04:12:26.694Z,5.10
2024-03-25T04:14:29.254Z,5.20
2024-03-25T04:16:31.945Z,5.10
2024-03-25T04:18:34.662Z,5.10
2024-03-25T04:20:40.288Z,5.10
2024-03-25T04:22:43.206Z,5.10
2024-03-25T04:24:45.763Z,5.10
2024-03-25T04:26:48.336Z,5.10
2024-03-25T04:28:50.857Z,5.10
2024-03-25T04:30:53.654Z,5.10
2024-03-25T04:32:56.316Z,5.10
2024-03-25T04:34:59.024Z,5.10
2024-03-25T04:37:01.516Z,5.10
2024-03-25T04:39:04.083Z,5.10
2024-03-25T04:41:06.601Z,5.00
2024-03-25T04:43:09.327Z,5.00
2024-03-25T04:45:12.410Z,5.10
2024-03-25T04:47:15.673Z,5.00
2024-03-25T04:49:18.213Z,4.90
2024-03-25T04:51:20.750Z,5.00
2024-03-25T04:53:23.242Z,5.00
2024-03-25T04:55:25.882Z,5.00
2024-03-25T04:57:28.488Z,5.00
2024-03-25T04:59:30.987Z,4.90
2024-03-25T05:01:33.525Z,4.90
2024-03-25T05:03:36.194Z,4.90
2024-03-25T05:05:38.682Z,5.30
2024-03-25T05:07:41.825Z,4.80
2024-03-25T05:09:44.892Z,4.80
2024-03-25T05:11:47.427Z,4.80
2024-03-25T05:13:49.914Z,4.80
2024-03-25T05:15:52.863Z,4.80
2024-03-25T05:17:55.348Z,4.90
2024-03-25T05:19:57.841Z,4.90
2024-03-25T05:22:00.396Z,4.80
2024-03-25T05:24:02.909Z,4.80
2024-03-25T05:26:05.705Z,4.70
2024-03-25T05:28:08.579Z,4.80
2024-03-25T05:30:13.372Z,4.70
2024-03-25T05:32:17.150Z,4.70
2024-03-25T05:34:19.794Z,4.70
2024-03-25T05:36:22.320Z,4.60
2024-03-25T05:38:24.964Z,4.60
2024-03-25T05:40:27.502Z,4.60
2024-03-25T05:42:30.088Z,4.50
2024-03-25T05:44:32.604Z,4.60
2024-03-25T05:46:35.304Z,4.50
2024-03-25T05:48:37.818Z,4.50
2024-03-25T05:50:40.460Z,4.50
2024-03-25T05:52:43.053Z,4.50
2024-03-25T05:54:45.528Z,4.50
2024-03-25T05:56:48.061Z,4.50
2024-03-25T05:58:50.537Z,4.50
2024-03-25T06:00:53.847Z,4.50
2024-03-25T06:02:56.527Z,4.50
2024-03-25T06:04:59.338Z,4.50
2024-03-25T06:07:01.918Z,4.60
2024-03-25T06:09:06.080Z,4.60
2024-03-25T06:11:08.688Z,4.60
2024-03-25T06:13:11.207Z,4.60
2024-03-25T06:15:13.862Z,4.70
2024-03-25T06:17:16.423Z,4.70
2024-03-25T06:19:19.212Z,4.70
2024-03-25T06:21:22.711Z,4.70
2024-03-25T06:23:25.654Z,4.80
2024-03-25T06:25:28.468Z,4.80
2024-03-25T06:27:32.654Z,4.80
2024-03-25T06:29:36.099Z,4.80
2024-03-25T06:31:56.508Z,4.90
2024-03-25T06:34:18.727Z,4.90
2024-03-25T06:36:21.628Z,4.90
2024-03-25T06:38:24.107Z,5.00
2024-03-25T06:40:26.736Z,5.00
2024-03-25T06:42:29.258Z,5.00
2024-03-25T06:44:32.159Z,5.00
2024-03-25T06:46:34.787Z,4.90
2024-03-25T06:48:37.525Z,5.00
2024-03-25T06:50:41.457Z,5.00
2024-03-25T06:52:43.956Z,5.00
2024-03-25T06:54:46.449Z,5.10
2024-03-25T06:56:50.544Z,5.20
2024-03-25T06:58:53.451Z,5.30
2024-03-25T07:00:57.161Z,5.40
2024-03-25T07:02:59.675Z,5.50
2024-03-25T07:05:02.170Z,5.60
2024-03-25T07:07:05.444Z,5.70
2024-03-25T07:09:11.768Z,5.70
2024-03-25T07:11:14.292Z,5.70
2024-03-25T07:13:17.263Z,5.70
2024-03-25T07:15:20.376Z,5.60
2024-03-25T07:17:23.287Z,5.60
2024-03-25T07:19:25.874Z,5.70
2024-03-25T07:21:28.655Z,5.70
2024-03-25T07:23:32.077Z,5.80
2024-03-25T07:25:34.686Z,5.80
2024-03-25T07:27:38.665Z,5.80
2024-03-25T07:29:41.225Z,5.90
2024-03-25T07:31:43.856Z,6.10
2024-03-25T07:33:46.361Z,6.20
2024-03-25T07:35:48.873Z,6.30
2024-03-25T07:37:52.019Z,6.40
2024-03-25T07:39:54.517Z,6.40
2024-03-25T07:41:57.220Z,6.30
2024-03-25T07:43:59.724Z,6.40
2024-03-25T07:46:02.313Z,6.60
2024-03-25T07:48:05.816Z,6.80
2024-03-25T07:50:09.354Z,6.90
2024-03-25T07:52:12.035Z,6.90
2024-03-25T07:54:16.458Z,7.00
2024-03-25T07:56:19.293Z,7.00
2024-03-25T07:58:21.840Z,6.80
2024-03-25T08:00:25.448Z,6.90
2024-03-25T08:02:28.201Z,7.00
2024-03-25T08:04:30.752Z,7.10
2024-03-25T08:06:33.311Z,7.40
2024-03-25T08:08:35.937Z,7.60
2024-03-25T08:10:38.785Z,7.70
2024-03-25T08:12:41.379Z,7.60
2024-03-25T08:14:44.264Z,7.50
2024-03-25T08:16:46.915Z,7.50
2024-03-25T08:18:49.493Z,7.70
2024-03-25T08:20:52.023Z,7.60
2024-03-25T08:22:55.002Z,7.40
2024-03-25T08:24:57.550Z,7.30
2024-03-25T08:27:00.062Z,7.20
2024-03-25T08:29:03.345Z,7.10
2024-03-25T08:31:06.152Z,7.10
2024-03-25T08:33:09.343Z,7.20
2024-03-25T08:35:11.911Z,7.30
2024-03-25T08:37:14.765Z,7.40
2024-03-25T08:39:17.527Z,7.50
2024-03-25T08:41:20.080Z,7.60
2024-03-25T08:43:22.738Z,7.60
2024-03-25T08:45:27.718Z,7.50
2024-03-25T08:47:37.120Z,7.70
2024-03-25T08:49:40.568Z,8.00
2024-03-25T08:51:43.177Z,8.20
2024-03-25T08:53:45.768Z,8.70
2024-03-25T08:55:48.548Z,8.80
2024-03-25T08:57:52.239Z,8.70
2024-03-25T08:59:54.807Z,8.70
2024-03-25T09:04:27.162Z,8.40
2024-03-25T09:06:19.316Z,8.20
2024-03-25T09:08:22.623Z,8.10
2024-03-25T09:10:43.583Z,8.00
2024-03-25T09:12:46.288Z,7.90
2024-03-25T09:14:48.858Z,7.80
2024-03-25T09:16:51.367Z,7.80
2024-03-25T09:18:54.238Z,7.70
2024-03-25T09:20:56.937Z,7.80
2024-03-25T09:22:59.526Z,7.70
2024-03-25T09:25:02.039Z,7.70
2024-03-25T09:27:05.116Z,7.80
2024-03-25T09:29:07.681Z,7.80
2024-03-25T09:31:10.291Z,8.10
2024-03-25T09:33:12.758Z,8.40
2024-03-25T09:35:15.276Z,8.80
2024-03-25T09:37:17.824Z,9.40
2024-03-25T09:39:26.215Z,9.60
2024-03-25T09:41:35.336Z,9.50
2024-03-25T09:43:41.470Z,9.20
2024-03-25T09:45:48.626Z,8.80
2024-03-25T09:47:53.390Z,8.70
2024-03-25T09:50:01.108Z,8.90
2024-03-25T09:52:09.199Z,9.30
2024-03-25T09:54:12.282Z,9.50
2024-03-25T09:56:15.843Z,9.80
2024-03-25T09:58:20.486Z,9.90
2024-03-25T10:00:23.216Z,9.70
2024-03-25T10:02:27.160Z,9.60
2024-03-25T10:04:30.174Z,9.40
2024-03-25T10:06:33.244Z,9.30
2024-03-25T10:08:35.792Z,9.20
2024-03-25T10:10:38.382Z,9.20
2024-03-25T10:12:41.622Z,9.20
2024-03-25T10:14:44.443Z,9.30
2024-03-25T10:16:47.017Z,9.40
2024-03-25T10:18:49.810Z,9.50
2024-03-25T10:20:52.505Z,9.40
2024-03-25T10:22:55.074Z,9.80
2024-03-25T10:24:59.064Z,9.80
2024-03-25T10:27:01.571Z,9.70
2024-03-25T10:29:04.890Z,9.50
2024-03-25T10:31:08.604Z,9.40
2024-03-25T10:33:11.136Z,9.40
2024-03-25T10:35:13.890Z,9.40
2024-03-25T10:37:16.999Z,9.40
2024-03-25T10:39:20.938Z,9.80
2024-03-25T10:41:25.687Z,10.10
2024-03-25T10:43:30.073Z,10.10
2024-03-25T10:45:34.101Z,10.10
2024-03-25T10:47:37.423Z,10.00
2024-03-25T10:49:42.612Z,9.90
2024-03-25T10:51:47.070Z,9.70
2024-03-25T10:53:52.270Z,9.60
2024-03-25T10:55:56.164Z,9.90
2024-03-25T10:58:00.861Z,10.20
2024-03-25T11:02:23.351Z,10.50
2024-03-25T11:04:26.082Z,10.80
2024-03-25T11:06:28.571Z,10.90
2024-03-25T11:08:32.668Z,10.80
2024-03-25T11:10:36.986Z,10.80
2024-03-25T11:12:41.493Z,10.70
2024-03-25T11:14:45.088Z,10.50
2024-03-25T11:16:52.870Z,10.30
2024-03-25T11:18:55.882Z,10.20
2024-03-25T11:21:02.433Z,10.10
2024-03-25T11:23:11.185Z,9.80
2024-03-25T11:25:14.267Z,9.80
2024-03-25T11:27:18.581Z,9.70
2024-03-25T11:29:21.541Z,9.80
2024-03-25T11:31:26.266Z,10.00
2024-03-25T11:33:28.770Z,10.20
2024-03-25T11:35:32.806Z,10.20
2024-03-25T11:37:40.462Z,10.20
2024-03-25T11:39:43.097Z,10.50
2024-03-25T11:41:46.024Z,10.70
2024-03-25T11:43:48.623Z,10.90
2024-03-25T11:45:51.289Z,11.00
2024-03-25T11:47:53.796Z,11.00
2024-03-25T11:49:56.289Z,11.00
2024-03-25T11:52:00.177Z,10.90
2024-03-25T11:54:04.783Z,11.10
2024-03-25T11:56:07.607Z,11.10
2024-03-25T11:58:10.346Z,11.00
2024-03-25T12:00:15.388Z,10.90
2024-03-25T12:02:18.301Z,10.80
2024-03-25T12:04:32.162Z,10.80
2024-03-25T12:06:36.948Z,10.70
2024-03-25T12:08:41.237Z,11.00
2024-03-25T12:11:01.592Z,11.20
2024-03-25T12:13:04.672Z,11.30
2024-03-25T12:15:07.995Z,11.30
2024-03-25T12:17:10.567Z,11.40
2024-03-25T12:19:13.083Z,11.30
2024-03-25T12:21:15.700Z,11.20
2024-03-25T12:23:19.663Z,11.10
2024-03-25T12:25:22.348Z,10.90
2024-03-25T12:27:25.017Z,11.10
2024-03-25T12:29:29.043Z,11.00
2024-03-25T12:31:33.480Z,11.00
2024-03-25T12:33:41.752Z,11.10
2024-03-25T12:35:47.299Z,11.10
2024-03-25T12:37:52.067Z,11.20
2024-03-25T12:39:58.682Z,11.20
2024-03-25T12:42:06.187Z,11.00
2024-03-25T12:44:09.909Z,10.80
2024-03-25T12:46:14.527Z,10.30
2024-03-25T12:48:17.517Z,10.30
2024-03-25T12:50:21.198Z,10.30
2024-03-25T12:52:23.714Z,10.20
2024-03-25T12:54:26.642Z,10.20
2024-03-25T12:56:29.242Z,10.30
2024-03-25T12:58:31.832Z,10.50
2024-03-25T13:00:34.400Z,10.40
2024-03-25T13:02:37.148Z,10.40
2024-03-25T13:04:40.396Z,10.50
2024-03-25T13:06:42.938Z,10.50
2024-03-25T13:08:45.460Z,10.40
2024-03-25T13:10:48.298Z,10.40
2024-03-25T13:12:50.820Z,10.30
2024-03-25T13:14:53.390Z,10.20
2024-03-25T13:16:56.075Z,10.30
2024-03-25T13:18:58.677Z,10.40
2024-03-25T13:21:01.300Z,10.40
2024-03-25T13:23:04.016Z,10.50
2024-03-25T13:25:07.345Z,10.50
2024-03-25T13:27:09.934Z,10.60
2024-03-25T13:29:12.399Z,10.90
2024-03-25T13:31:14.991Z,11.00
2024-03-25T13:33:17.528Z,11.30
2024-03-25T13:35:21.037Z,11.60
2024-03-25T13:37:24.237Z,11.90
2024-03-25T13:39:26.902Z,12.00
2024-03-25T13:41:29.592Z,11.90
2024-03-25T13:43:32.153Z,12.00
2024-03-25T13:45:34.735Z,12.00
2024-03-25T13:47:37.277Z,12.10
2024-03-25T13:49:39.797Z,11.70
2024-03-25T13:51:42.424Z,11.60
2024-03-25T13:53:45.011Z,11.80
2024-03-25T13:55:47.771Z,12.10
2024-03-25T13:57:50.390Z,11.80
2024-03-25T13:59:52.892Z,11.70
2024-03-25T14:01:55.442Z,11.40
2024-03-25T14:03:58.237Z,11.30
2024-03-25T14:06:00.952Z,11.30
2024-03-25T14:08:04.039Z,11.40
2024-03-25T14:10:07.479Z,11.60
2024-03-25T14:12:10.074Z,11.70
2024-03-25T14:14:12.580Z,11.70
2024-03-25T14:16:15.251Z,11.70
2024-03-25T14:18:17.731Z,11.50
2024-03-25T14:20:20.334Z,11.40
2024-03-25T14:22:23.079Z,11.20
2024-03-25T14:24:25.585Z,11.00
2024-03-25T14:26:28.133Z,10.90
2024-03-25T14:28:30.623Z,11.10
2024-03-25T14:30:33.138Z,11.20
2024-03-25T14:32:35.658Z,11.20
2024-03-25T14:34:38.136Z,11.30
2024-03-25T14:36:40.918Z,11.20
2024-03-25T14:38:43.502Z,11.40
2024-03-25T14:40:47.415Z,11.60
2024-03-25T14:42:49.993Z,11.80
2024-03-25T14:44:52.497Z,11.70
2024-03-25T14:46:54.980Z,11.90
2024-03-25T14:48:57.509Z,11.90
2024-03-25T14:51:00.090Z,11.70
2024-03-25T14:53:02.620Z,11.50
2024-03-25T14:55:05.879Z,11.40
2024-03-25T14:57:18.818Z,11.30
2024-03-25T14:59:24.188Z,11.30
2024-03-25T15:01:26.836Z,11.10
2024-03-25T15:03:29.446Z,11.00
2024-03-25T15:05:32.451Z,10.90
2024-03-25T15:07:35.397Z,10.70
2024-03-25T15:09:38.424Z,10.80
2024-03-25T15:11:40.954Z,10.80
2024-03-25T15:13:43.474Z,10.80
2024-03-25T15:15:47.792Z,10.80
2024-03-25T15:17:50.835Z,10.80
2024-03-25T15:19:53.392Z,11.00
2024-03-25T15:21:55.999Z,11.10
2024-03-25T15:23:58.536Z,11.20
2024-03-25T15:26:01.139Z,11.40
2024-03-25T15:28:04.141Z,11.70
2024-03-25T15:30:08.347Z,11.90
2024-03-25T15:32:11.266Z,11.90
2024-03-25T15:34:13.812Z,11.70
2024-03-25T15:36:16.415Z,11.60
2024-03-25T15:38:19.171Z,11.50
2024-03-25T15:40:21.751Z,11.50
2024-03-25T15:42:24.357Z,11.50
2024-03-25T15:44:27.028Z,11.60
2024-03-25T15:46:29.608Z,11.40
2024-03-25T15:48:32.287Z,11.40
2024-03-25T15:50:34.840Z,11.40
2024-03-25T15:52:37.699Z,11.40
2024-03-25T15:54:40.181Z,11.50
2024-03-25T15:56:42.705Z,11.50
2024-03-25T15:58:45.394Z,11.60
2024-03-25T16:00:48.018Z,11.70
2024-03-25T16:02:51.834Z,11.60
2024-03-25T16:04:54.377Z,11.40
2024-03-25T16:06:56.894Z,11.50
2024-03-25T16:08:59.799Z,11.40
2024-03-25T16:11:02.644Z,11.20
2024-03-25T16:13:05.368Z,11.20
2024-03-25T16:15:08.366Z,11.00
2024-03-25T16:17:11.082Z,11.10
2024-03-25T16:19:14.273Z,11.10
2024-03-25T16:21:19.147Z,11.10
2024-03-25T16:23:21.823Z,11.40
2024-03-25T16:25:24.906Z,11.50
2024-03-25T16:27:27.486Z,11.60
2024-03-25T16:29:30.109Z,11.10
2024-03-25T16:31:33.244Z,10.90
2024-03-25T16:33:35.855Z,10.90
2024-03-25T16:35:38.642Z,10.90
2024-03-25T16:37:41.214Z,10.90
2024-03-25T16:39:43.896Z,11.00
2024-03-25T16:41:46.466Z,11.20
2024-03-25T16:43:49.080Z,11.00
2024-03-25T16:45:51.583Z,10.90
2024-03-25T16:47:54.177Z,10.90
2024-03-25T16:49:57.210Z,10.80
2024-03-25T16:52:00.271Z,10.70
2024-03-25T16:54:04.027Z,10.60
2024-03-25T16:56:07.824Z,10.60
2024-03-25T16:58:11.010Z,10.50
2024-03-25T17:00:14.681Z,10.50
2024-03-25T17:02:17.346Z,10.40
2024-03-25T17:04:19.953Z,10.30
2024-03-25T17:06:22.558Z,10.30
2024-03-25T17:08:26.400Z,10.10
2024-03-25T17:10:30.988Z,10.00
2024-03-25T17:12:35.423Z,10.00
2024-03-25T17:14:38.044Z,9.90
2024-03-25T17:16:40.633Z,9.90
2024-03-25T17:18:43.180Z,9.80
2024-03-25T17:20:45.774Z,9.80
2024-03-25T17:22:50.279Z,9.70
2024-03-25T17:24:53.136Z,9.60
2024-03-25T17:26:56.172Z,9.50
2024-03-25T17:28:58.712Z,9.50
2024-03-25T17:31:04.065Z,9.50
2024-03-25T17:33:06.559Z,9.40
2024-03-25T17:35:10.213Z,9.30
2024-03-25T17:37:12.732Z,9.20
2024-03-25T17:39:17.425Z,9.10
2024-03-25T17:41:20.153Z,9.00
2024-03-25T17:43:22.858Z,9.00
2024-03-25T17:45:25.427Z,8.90
2024-03-25T17:47:28.048Z,8.90
2024-03-25T17:49:30.676Z,8.80
2024-03-25T17:51:34.227Z,8.80
2024-03-25T17:53:36.727Z,8.80
2024-03-25T17:55:39.679Z,8.70
2024-03-25T17:57:42.217Z,8.60
2024-03-25T17:59:44.800Z,8.60
2024-03-25T18:01:47.325Z,8.50
2024-03-25T18:03:49.975Z,8.50
2024-03-25T18:05:52.504Z,8.50
2024-03-25T18:07:55.051Z,8.40
2024-03-25T18:09:59.399Z,8.40
2024-03-25T18:12:02.059Z,8.40
2024-03-25T18:14:04.565Z,8.30
2024-03-25T18:16:07.342Z,8.20
2024-03-25T18:18:10.934Z,8.30
2024-03-25T18:20:13.500Z,8.20
2024-03-25T18:22:16.069Z,8.20
2024-03-25T18:24:30.021Z,8.10
2024-03-25T18:26:22.921Z,8.20
2024-03-25T18:28:25.515Z,8.20
2024-03-25T18:30:28.036Z,7.90
2024-03-25T18:32:30.639Z,8.10
2024-03-25T18:34:33.108Z,8.00
2024-03-25T18:36:35.610Z,8.00
2024-03-25T18:38:38.179Z,7.90
2024-03-25T18:40:40.676Z,7.80
2024-03-25T18:42:43.432Z,7.80
2024-03-25T18:44:46.028Z,7.70
2024-03-25T18:46:50.483Z,7.70
2024-03-25T18:48:55.319Z,7.60
2024-03-25T18:50:57.136Z,7.60
2024-03-25T18:52:59.638Z,7.60
2024-03-25T18:55:02.172Z,7.60
2024-03-25T18:57:04.712Z,7.50
2024-03-25T18:59:07.174Z,7.50
2024-03-25T19:01:11.264Z,7.50
2024-03-25T19:03:13.901Z,7.40
2024-03-25T19:05:16.727Z,7.40
2024-03-25T19:07:19.295Z,7.40
2024-03-25T19:09:21.791Z,7.30
2024-03-25T19:11:24.256Z,7.30
2024-03-25T19:13:26.977Z,7.30
2024-03-25T19:15:29.542Z,7.30
2024-03-25T19:17:32.528Z,7.30
2024-03-25T19:19:36.070Z,7.30
2024-03-25T19:21:38.570Z,7.20
2024-03-25T19:23:41.138Z,7.20
2024-03-25T19:25:43.718Z,7.30
2024-03-25T19:27:46.279Z,7.30
2024-03-25T19:29:48.759Z,7.20
2024-03-25T19:31:51.496Z,7.30
2024-03-25T19:33:54.112Z,7.20
2024-03-25T19:36:02.448Z,7.20
2024-03-25T19:38:02.579Z,7.30
2024-03-25T19:40:06.669Z,7.20
2024-03-25T19:42:09.161Z,7.20
2024-03-25T19:44:12.354Z,7.10
2024-03-25T19:46:14.839Z,7.20
2024-03-25T19:48:19.773Z,7.10
2024-03-25T19:50:22.078Z,7.00
2024-03-25T19:52:24.621Z,7.00
2024-03-25T19:54:27.121Z,6.90
2024-03-25T19:56:29.655Z,6.80
2024-03-25T19:58:32.758Z,6.80
2024-03-25T20:00:37.092Z,6.70
2024-03-25T20:02:39.631Z,6.70
2024-03-25T20:04:42.131Z,6.80
2024-03-25T20:06:44.608Z,6.70
2024-03-25T20:08:47.157Z,6.70
2024-03-25T20:10:49.747Z,6.70
2024-03-25T20:12:52.246Z,6.80
2024-03-25T20:14:54.966Z,6.80
2024-03-25T20:16:57.474Z,6.80
2024-03-25T20:18:59.972Z,6.70
2024-03-25T20:21:02.554Z,6.70
2024-03-25T20:23:05.271Z,6.60
2024-03-25T20:25:08.331Z,6.60
2024-03-25T20:27:11.046Z,6.50
2024-03-25T20:29:13.670Z,6.50
2024-03-25T20:31:16.611Z,6.50
2024-03-25T20:33:19.139Z,6.40
2024-03-25T20:35:23.267Z,6.30
2024-03-25T20:37:25.937Z,6.30
2024-03-25T20:39:28.442Z,6.30
2024-03-25T20:41:31.082Z,6.30
2024-03-25T20:43:33.726Z,6.30
2024-03-25T20:45:36.466Z,6.30
2024-03-25T20:47:39.223Z,6.30
2024-03-25T20:49:42.870Z,6.20
2024-03-25T20:51:47.165Z,6.10
2024-03-25T20:53:49.654Z,6.10
2024-03-25T20:55:52.184Z,6.00
2024-03-25T20:57:54.682Z,6.10
2024-03-25T20:59:58.071Z,6.10
2024-03-25T21:02:01.444Z,6.00
2024-03-25T21:04:04.988Z,6.00
2024-03-25T21:06:07.938Z,6.00
2024-03-25T21:08:10.476Z,6.00
2024-03-25T21:10:13.085Z,5.90
2024-03-25T21:12:15.907Z,5.90
2024-03-25T21:14:18.828Z,5.80
2024-03-25T21:16:21.497Z,5.70
2024-03-25T21:18:27.761Z,5.60
2024-03-25T21:20:30.272Z,5.50
2024-03-25T21:22:32.809Z,5.50
2024-03-25T21:24:35.639Z,5.50
2024-03-25T21:26:39.020Z,5.50
2024-03-25T21:28:42.232Z,5.40
2024-03-25T21:30:45.030Z,5.40
2024-03-25T21:32:47.540Z,5.50
2024-03-25T21:34:50.042Z,5.50
2024-03-25T21:36:52.573Z,5.50
2024-03-25T21:38:55.073Z,5.50
2024-03-25T21:40:57.583Z,5.50
2024-03-25T21:43:00.194Z,5.50
2024-03-25T21:45:02.739Z,5.50
2024-03-25T21:47:06.855Z,5.60
2024-03-25T21:49:09.546Z,5.50
2024-03-25T21:51:12.078Z,6.10
2024-03-25T21:53:15.379Z,5.70
2024-03-25T21:55:18.119Z,5.70
2024-03-25T21:57:20.815Z,5.70
2024-03-25T21:59:23.433Z,5.70
2024-03-25T22:01:26.761Z,5.80
2024-03-25T22:03:34.465Z,5.70
2024-03-25T22:05:34.011Z,5.70
2024-03-25T22:07:39.981Z,5.70
2024-03-25T22:09:42.320Z,5.60
2024-03-25T22:11:44.920Z,5.80
2024-03-25T22:13:48.894Z,5.70
2024-03-25T22:15:58.963Z,5.70
2024-03-25T22:18:02.115Z,5.70
2024-03-25T22:20:05.850Z,5.70
2024-03-25T22:22:09.289Z,5.60
2024-03-25T22:24:12.236Z,5.60
2024-03-25T22:26:14.738Z,5.60
2024-03-25T22:28:17.389Z,5.50
2024-03-25T22:30:19.952Z,5.50
2024-03-25T22:32:22.430Z,5.50
2024-03-25T22:34:26.019Z,5.40
2024-03-25T22:36:30.031Z,5.40
2024-03-25T22:38:32.524Z,5.30
2024-03-25T22:40:36.895Z,5.30
2024-03-25T22:42:39.547Z,5.20
2024-03-25T22:44:42.968Z,5.20
2024-03-25T22:46:45.569Z,5.20
2024-03-25T22:48:48.322Z,5.10
2024-03-25T22:50:57.097Z,5.20
2024-03-25T22:52:59.654Z,5.20
2024-03-25T22:55:02.992Z,5.20
2024-03-25T22:57:05.772Z,5.10
2024-03-25T22:59:08.316Z,5.10
2024-03-25T23:01:10.851Z,5.00
2024-03-25T23:03:13.468Z,4.90
2024-03-25T23:05:16.288Z,4.90
2024-03-25T23:07:18.909Z,4.90
2024-03-25T23:09:22.113Z,4.90
2024-03-25T23:11:24.751Z,4.90
2024-03-25T23:13:27.761Z,4.90
2024-03-25T23:15:30.463Z,5.00
2024-03-25T23:17:32.935Z,5.00
2024-03-25T23:19:35.696Z,5.00
2024-03-25T23:21:38.407Z,5.00
2024-03-25T23:23:40.998Z,5.00
2024-03-25T23:25:44.171Z,5.00
2024-03-25T23:27:47.665Z,4.90
2024-03-25T23:29:51.137Z,4.90
2024-03-25T23:31:53.960Z,4.90
2024-03-25T23:33:56.769Z,4.90
2024-03-25T23:35:59.874Z,4.90
2024-03-25T23:38:05.082Z,4.80
2024-03-25T23:40:09.438Z,4.80
2024-03-25T23:42:12.562Z,4.80
2024-03-25T23:44:16.987Z,4.70
2024-03-25T23:46:21.294Z,4.70
2024-03-25T23:48:24.204Z,4.70
2024-03-25T23:50:26.868Z,4.60
2024-03-25T23:52:30.265Z,4.60
2024-03-25T23:54:32.844Z,4.50
2024-03-25T23:56:35.329Z,4.50
2024-03-25T23:58:37.810Z,4.50
